createdAt,value
2022-09-23T00:01:21.993Z,80.48
2022-09-23T00:03:49.468Z,81.04
2022-09-23T00:06:21.258Z,81.42
2022-09-23T00:08:50.005Z,80.86
2022-09-23T00:11:22.573Z,80.72
2022-09-23T00:13:57.055Z,81.14
2022-09-23T00:16:33.373Z,81.17
2022-09-23T00:19:02.571Z,81.38
2022-09-23T00:21:30.044Z,81.58
2022-09-23T00:23:57.529Z,81.45
2022-09-23T00:26:25.026Z,81.64
2022-09-23T00:28:52.515Z,81.88
2022-09-23T00:31:26.409Z,82.92
2022-09-23T00:34:00.692Z,82.95
2022-09-23T00:36:30.024Z,82.75
2022-09-23T00:38:57.553Z,82.43
2022-09-23T00:41:26.206Z,82.97
2022-09-23T00:43:59.998Z,82.94
2022-09-23T00:46:43.542Z,82.91
2022-09-23T00:49:28.893Z,82.83
2022-09-23T00:52:07.640Z,82.93
2022-09-23T00:54:35.545Z,82.63
2022-09-23T00:57:05.611Z,82.97
2022-09-23T00:59:33.555Z,83.03
2022-09-23T01:02:02.858Z,82.67
2022-09-23T01:04:30.511Z,83.17
2022-09-23T01:06:57.884Z,82.74
2022-09-23T01:09:25.659Z,83.14
2022-09-23T01:12:38.814Z,83.53
2022-09-23T01:15:16.848Z,83.24
2022-09-23T01:18:02.615Z,83.28
2022-09-23T01:20:48.755Z,83.60
2022-09-23T01:23:55.695Z,83.94
2022-09-23T01:26:59.011Z,83.59
2022-09-23T01:29:55.590Z,83.26
2022-09-23T01:32:59.800Z,83.82
2022-09-23T01:35:55.477Z,82.83
2022-09-23T01:38:52.553Z,83.31
2022-09-23T01:41:37.882Z,83.67
2022-09-23T01:44:59.643Z,82.90
2022-09-23T01:47:38.972Z,83.34
2022-09-23T01:50:34.666Z,83.41
2022-09-23T01:53:10.367Z,83.96
2022-09-23T01:55:47.420Z,83.60
2022-09-23T01:58:35.547Z,83.10
2022-09-23T02:01:08.411Z,84.03
2022-09-23T02:03:59.892Z,83.43
2022-09-23T02:06:49.036Z,83.25
2022-09-23T02:09:27.099Z,83.81
2022-09-23T02:12:02.000Z,83.56
2022-09-23T02:14:38.381Z,83.52
2022-09-23T02:17:23.704Z,84.39
2022-09-23T02:20:01.267Z,84.17
2022-09-23T02:22:40.927Z,83.88
2022-09-23T02:25:12.393Z,84.42
2022-09-23T02:27:51.419Z,84.13
2022-09-23T02:30:27.144Z,84.05
2022-09-23T02:33:20.288Z,84.39
2022-09-23T02:36:19.406Z,84.67
2022-09-23T02:38:57.488Z,84.13
2022-09-23T02:41:37.166Z,84.98
2022-09-23T02:44:16.002Z,85.12
2022-09-23T02:46:44.392Z,84.66
2022-09-23T02:49:17.456Z,84.65
2022-09-23T02:51:45.401Z,84.94
2022-09-23T02:54:19.342Z,85.48
2022-09-23T02:56:49.444Z,84.82
2022-09-23T02:59:19.747Z,85.57
2022-09-23T03:02:14.376Z,85.31
2022-09-23T03:05:18.214Z,85.18
2022-09-23T03:08:10.372Z,85.80
2022-09-23T03:11:05.151Z,85.29
2022-09-23T03:13:47.553Z,84.66
2022-09-23T03:16:39.746Z,85.14
2022-09-23T03:19:12.919Z,84.83
2022-09-23T03:22:07.427Z,85.00
2022-09-23T03:24:39.424Z,84.97
2022-09-23T03:27:17.716Z,85.57
2022-09-23T03:29:49.945Z,85.48
2022-09-23T03:32:21.768Z,85.42
2022-09-23T03:34:54.693Z,85.35
2022-09-23T03:37:41.048Z,85.31
2022-09-23T03:40:26.842Z,85.72
2022-09-23T03:42:58.611Z,85.42
2022-09-23T03:45:33.896Z,85.10
2022-09-23T03:48:01.832Z,85.84
2022-09-23T03:50:29.646Z,85.75
2022-09-23T03:52:56.971Z,85.37
2022-09-23T03:55:24.298Z,85.93
2022-09-23T03:57:52.060Z,85.30
2022-09-23T04:00:19.425Z,85.63
2022-09-23T04:02:46.770Z,86.17
2022-09-23T04:05:14.949Z,86.37
2022-09-23T04:07:42.529Z,86.16
2022-09-23T04:10:10.827Z,86.49
2022-09-23T04:12:38.431Z,86.53
2022-09-23T04:15:07.062Z,86.34
2022-09-23T04:17:34.421Z,86.23
2022-09-23T04:20:02.253Z,86.82
2022-09-23T04:22:29.695Z,86.56
2022-09-23T04:24:57.351Z,86.23
2022-09-23T04:27:24.750Z,86.09
2022-09-23T04:29:52.110Z,86.27
2022-09-23T04:32:19.494Z,86.61
2022-09-23T04:34:46.886Z,86.83
2022-09-23T04:37:14.292Z,86.88
2022-09-23T04:39:41.683Z,87.54
2022-09-23T04:42:09.054Z,87.49
2022-09-23T04:44:36.620Z,87.01
2022-09-23T04:47:04.358Z,87.50
2022-09-23T04:49:33.622Z,86.84
2022-09-23T04:52:02.729Z,87.12
2022-09-23T04:54:33.554Z,87.42
2022-09-23T04:57:01.371Z,86.97
2022-09-23T04:59:28.745Z,87.18
2022-09-23T05:01:56.210Z,87.57
2022-09-23T05:04:23.580Z,87.77
2022-09-23T05:06:50.949Z,87.53
2022-09-23T05:09:18.367Z,87.73
2022-09-23T05:11:45.918Z,87.56
2022-09-23T05:14:14.011Z,87.32
2022-09-23T05:16:41.871Z,87.60
2022-09-23T05:19:09.244Z,88.11
2022-09-23T05:21:37.719Z,87.85
2022-09-23T05:24:05.227Z,87.84
2022-09-23T05:26:33.332Z,88.03
2022-09-23T05:29:00.926Z,88.30
2022-09-23T05:31:30.340Z,88.17
2022-09-23T05:34:02.467Z,88.60
2022-09-23T05:36:37.141Z,88.44
2022-09-23T05:39:07.845Z,88.43
2022-09-23T05:41:36.339Z,88.43
2022-09-23T05:44:04.109Z,88.21
2022-09-23T05:46:32.122Z,88.50
2022-09-23T05:49:03.490Z,88.59
2022-09-23T05:51:35.477Z,89.13
2022-09-23T05:54:04.306Z,88.20
2022-09-23T05:56:33.605Z,88.29
2022-09-23T05:59:02.513Z,88.89
2022-09-23T06:01:35.212Z,88.59
2022-09-23T06:04:06.138Z,89.31
2022-09-23T06:06:38.265Z,89.56
2022-09-23T06:09:09.889Z,89.48
2022-09-23T06:11:37.598Z,89.57
2022-09-23T06:14:05.628Z,89.37
2022-09-23T06:16:35.721Z,88.94
2022-09-23T06:19:06.433Z,89.24
2022-09-23T06:21:38.276Z,89.29
2022-09-23T06:24:08.728Z,89.23
2022-09-23T06:26:38.255Z,89.60
2022-09-23T06:29:11.775Z,89.81
2022-09-23T06:31:41.811Z,90.45
2022-09-23T06:34:14.650Z,89.89
2022-09-23T06:36:45.471Z,90.13
2022-09-23T06:39:16.654Z,90.24
2022-09-23T06:41:45.099Z,90.07
2022-09-23T06:44:14.996Z,89.78
2022-09-23T06:46:42.465Z,90.31
2022-09-23T06:49:10.591Z,90.07
2022-09-23T06:51:37.973Z,89.75
2022-09-23T06:54:05.629Z,89.46
2022-09-23T06:56:37.993Z,90.37
2022-09-23T06:59:12.908Z,89.39
2022-09-23T07:01:40.425Z,90.05
2022-09-23T07:04:10.581Z,89.93
2022-09-23T07:06:37.976Z,89.29
2022-09-23T07:09:08.922Z,89.62
2022-09-23T07:11:37.595Z,89.25
2022-09-23T07:14:05.396Z,89.60
2022-09-23T07:16:33.004Z,88.97
2022-09-23T07:19:00.366Z,89.60
2022-09-23T07:21:27.834Z,89.24
2022-09-23T07:23:57.944Z,88.66
2022-09-23T07:26:26.080Z,89.26
2022-09-23T07:28:56.418Z,88.82
2022-09-23T07:31:37.524Z,89.17
2022-09-23T07:34:11.526Z,88.89
2022-09-23T07:36:40.715Z,89.29
2022-09-23T07:39:12.077Z,89.20
2022-09-23T07:41:41.480Z,89.28
2022-09-23T07:44:11.675Z,88.94
2022-09-23T07:46:39.956Z,88.87
2022-09-23T07:49:07.937Z,88.67
2022-09-23T07:51:38.158Z,88.78
2022-09-23T07:54:11.036Z,87.79
2022-09-23T07:56:38.715Z,87.36
2022-09-23T07:59:10.977Z,87.37
2022-09-23T08:01:42.534Z,87.18
2022-09-23T08:04:36.245Z,86.76
2022-09-23T08:07:06.096Z,86.93
2022-09-23T08:09:41.739Z,87.16
2022-09-23T08:12:16.850Z,86.98
2022-09-23T08:14:44.284Z,86.88
2022-09-23T08:17:12.992Z,86.11
2022-09-23T08:19:40.387Z,86.28
2022-09-23T08:22:07.840Z,85.58
2022-09-23T08:24:35.214Z,85.73
2022-09-23T08:27:02.587Z,85.47
2022-09-23T08:29:30.253Z,84.91
2022-09-23T08:31:58.060Z,84.53
2022-09-23T08:34:27.812Z,84.28
2022-09-23T08:36:55.244Z,84.08
2022-09-23T08:39:23.067Z,84.39
2022-09-23T08:41:58.237Z,83.81
2022-09-23T08:44:38.428Z,83.60
2022-09-23T08:47:47.015Z,83.13
2022-09-23T08:50:30.041Z,81.79
2022-09-23T08:53:04.087Z,82.09
2022-09-23T08:55:48.869Z,81.87
2022-09-23T08:58:43.890Z,81.86
2022-09-23T09:01:44.756Z,80.98
2022-09-23T09:04:42.940Z,81.19
2022-09-23T09:10:22.244Z,80.99
2022-09-23T09:13:43.040Z,81.00
2022-09-23T09:17:00.591Z,80.68
2022-09-23T09:20:01.164Z,80.90
2022-09-23T09:22:47.990Z,80.30
2022-09-23T09:25:45.726Z,79.79
2022-09-23T09:28:31.216Z,79.24
2022-09-23T09:31:16.143Z,78.98
2022-09-23T09:33:57.984Z,79.56
2022-09-23T09:36:49.948Z,79.41
2022-09-23T09:39:17.332Z,78.92
2022-09-23T09:41:52.253Z,78.15
2022-09-23T09:44:30.434Z,78.15
2022-09-23T09:47:28.353Z,78.17
2022-09-23T09:50:08.753Z,77.50
2022-09-23T09:52:39.919Z,76.77
2022-09-23T09:55:13.165Z,76.90
2022-09-23T09:57:52.701Z,76.92
2022-09-23T10:00:45.281Z,76.08
2022-09-23T10:03:13.187Z,76.14
2022-09-23T10:05:48.690Z,76.97
2022-09-23T10:08:19.159Z,76.97
2022-09-23T10:11:01.646Z,76.38
2022-09-23T10:13:30.773Z,76.80
2022-09-23T10:16:03.731Z,76.31
2022-09-23T10:18:37.375Z,76.41
2022-09-23T10:21:27.505Z,75.67
2022-09-23T10:23:58.490Z,75.25
2022-09-23T10:26:33.825Z,75.04
2022-09-23T10:29:19.199Z,74.75
2022-09-23T10:31:46.579Z,74.58
2022-09-23T10:34:27.845Z,73.00
2022-09-23T10:37:14.407Z,72.35
2022-09-23T10:40:00.664Z,72.89
2022-09-23T10:43:09.311Z,72.20
2022-09-23T10:45:59.167Z,70.97
2022-09-23T10:48:48.657Z,70.52
2022-09-23T10:52:18.196Z,70.30
2022-09-23T10:55:22.666Z,70.99
2022-09-23T10:58:20.447Z,70.85
2022-09-23T11:01:19.718Z,70.57
2022-09-23T11:04:32.925Z,69.89
2022-09-23T11:07:37.289Z,70.10
2022-09-23T11:11:11.506Z,69.31
2022-09-23T11:14:05.213Z,68.53
2022-09-23T11:16:58.110Z,69.00
2022-09-23T11:20:02.944Z,69.29
2022-09-23T11:23:09.378Z,69.37
2022-09-23T11:26:32.181Z,68.03
2022-09-23T11:29:35.602Z,68.05
2022-09-23T11:32:47.946Z,67.46
2022-09-23T11:35:25.738Z,67.77
2022-09-23T11:38:11.296Z,67.36
2022-09-23T11:40:44.088Z,67.80
2022-09-23T11:43:28.519Z,67.17
2022-09-23T11:46:17.624Z,66.75
2022-09-23T11:49:02.864Z,66.23
2022-09-23T11:52:00.058Z,66.46
2022-09-23T11:54:43.745Z,66.66
2022-09-23T11:57:36.707Z,66.25
2022-09-23T12:00:16.640Z,65.52
2022-09-23T12:03:06.145Z,65.16
2022-09-23T12:05:49.296Z,64.98
2022-09-23T12:08:29.738Z,64.31
2022-09-23T12:11:21.853Z,64.21
2022-09-23T12:14:21.413Z,64.19
2022-09-23T12:17:19.773Z,64.10
2022-09-23T12:20:28.060Z,63.78
2022-09-23T12:23:27.016Z,63.05
2022-09-23T12:26:02.748Z,62.72
2022-09-23T12:28:40.661Z,61.36
2022-09-23T12:31:17.325Z,60.57
2022-09-23T12:33:54.064Z,60.87
2022-09-23T12:36:34.744Z,60.66
2022-09-23T12:39:32.443Z,61.16
2022-09-23T12:42:20.479Z,61.35
2022-09-23T12:44:49.276Z,61.17
2022-09-23T12:47:25.463Z,61.45
2022-09-23T12:49:54.316Z,61.49
2022-09-23T12:52:31.397Z,60.15
2022-09-23T12:55:46.927Z,60.93
2022-09-23T12:58:42.113Z,60.20
2022-09-23T13:01:15.599Z,60.24
2022-09-23T13:04:10.681Z,60.05
2022-09-23T13:07:07.743Z,59.87
2022-09-23T13:09:43.384Z,60.20
2022-09-23T13:12:27.055Z,60.49
2022-09-23T13:15:03.131Z,59.31
2022-09-23T13:17:39.208Z,58.84
2022-09-23T13:20:38.292Z,59.31
2022-09-23T13:23:21.743Z,59.27
2022-09-23T13:25:53.186Z,59.27
2022-09-23T13:28:32.380Z,60.18
2022-09-23T13:31:05.327Z,60.37
2022-09-23T13:33:45.606Z,60.19
2022-09-23T13:36:18.989Z,60.44
2022-09-23T13:38:46.993Z,60.31
2022-09-23T13:41:19.599Z,60.05
2022-09-23T13:43:55.883Z,59.83
2022-09-23T13:46:33.905Z,59.63
2022-09-23T13:49:02.658Z,59.42
2022-09-23T13:51:35.363Z,58.81
2022-09-23T13:54:05.094Z,59.12
2022-09-23T13:56:33.645Z,58.68
2022-09-23T13:59:31.406Z,58.67
2022-09-23T14:02:13.795Z,58.98
2022-09-23T14:04:41.404Z,58.80
2022-09-23T14:07:13.837Z,58.84
2022-09-23T14:09:46.330Z,59.14
2022-09-23T14:12:14.984Z,58.92
2022-09-23T14:14:43.355Z,58.69
2022-09-23T14:17:19.929Z,58.94
2022-09-23T14:19:47.829Z,58.91
2022-09-23T14:22:29.798Z,59.04
2022-09-23T14:24:58.527Z,59.34
2022-09-23T14:27:33.099Z,59.16
2022-09-23T14:30:03.676Z,59.40
2022-09-23T14:32:32.697Z,59.75
2022-09-23T14:35:03.673Z,59.99
2022-09-23T14:37:51.752Z,60.27
2022-09-23T14:40:22.096Z,60.22
2022-09-23T14:43:11.141Z,60.16
2022-09-23T14:45:40.534Z,60.10
2022-09-23T14:48:24.169Z,59.98
2022-09-23T14:50:58.085Z,60.50
2022-09-23T14:53:33.273Z,60.56
2022-09-23T14:56:06.583Z,60.85
2022-09-23T14:58:56.398Z,60.72
2022-09-23T15:01:32.898Z,61.08
2022-09-23T15:04:21.300Z,61.15
2022-09-23T15:06:50.882Z,61.23
2022-09-23T15:09:41.667Z,61.57
2022-09-23T15:12:15.809Z,61.40
2022-09-23T15:14:51.147Z,61.76
2022-09-23T15:17:24.440Z,61.71
2022-09-23T15:20:00.638Z,61.86
2022-09-23T15:22:28.374Z,61.99
2022-09-23T15:25:24.833Z,62.35
2022-09-23T15:28:02.315Z,62.59
2022-09-23T15:30:31.805Z,62.66
2022-09-23T15:32:59.878Z,62.64
2022-09-23T15:35:31.910Z,62.81
2022-09-23T15:38:02.685Z,62.84
2022-09-23T15:40:36.260Z,62.77
2022-09-23T15:43:21.678Z,63.13
2022-09-23T15:45:53.656Z,63.41
2022-09-23T15:48:26.009Z,63.67
2022-09-23T15:50:54.641Z,63.74
2022-09-23T15:53:27.894Z,63.97
2022-09-23T15:55:55.650Z,64.33
2022-09-23T15:58:23.625Z,64.34
2022-09-23T16:00:56.773Z,65.20
2022-09-23T16:03:28.893Z,65.46
2022-09-23T16:06:03.029Z,65.53
2022-09-23T16:08:32.741Z,65.51
2022-09-23T16:11:00.339Z,65.71
2022-09-23T16:13:27.708Z,65.92
2022-09-23T16:15:56.215Z,66.17
2022-09-23T16:18:23.653Z,66.20
2022-09-23T16:20:51.195Z,66.39
2022-09-23T16:23:37.468Z,66.57
2022-09-23T16:26:13.887Z,66.50
2022-09-23T16:28:43.022Z,66.81
2022-09-23T16:31:11.816Z,67.13
2022-09-23T16:33:39.744Z,67.35
2022-09-23T16:36:17.429Z,67.26
2022-09-23T16:38:45.015Z,67.45
2022-09-23T16:41:12.388Z,68.03
2022-09-23T16:43:39.827Z,67.92
2022-09-23T16:46:14.054Z,68.34
2022-09-23T16:48:42.704Z,68.46
2022-09-23T16:51:20.510Z,68.80
2022-09-23T16:53:50.560Z,68.77
2022-09-23T16:56:25.734Z,69.17
2022-09-23T16:58:55.974Z,69.21
2022-09-23T17:01:47.482Z,69.27
2022-09-23T17:04:16.902Z,69.20
2022-09-23T17:06:52.514Z,69.69
2022-09-23T17:09:24.579Z,70.03
2022-09-23T17:12:23.104Z,69.80
2022-09-23T17:14:50.534Z,70.51
2022-09-23T17:17:17.967Z,70.37
2022-09-23T17:19:45.319Z,70.37
2022-09-23T17:22:13.297Z,70.64
2022-09-23T17:24:40.733Z,70.99
2022-09-23T17:27:08.085Z,71.16
2022-09-23T17:29:35.421Z,71.50
2022-09-23T17:32:04.815Z,72.09
2022-09-23T17:34:33.281Z,72.29
2022-09-23T17:37:00.805Z,72.83
2022-09-23T17:39:28.180Z,72.79
2022-09-23T17:41:58.418Z,73.09
2022-09-23T17:44:26.436Z,73.49
2022-09-23T17:46:53.771Z,73.38
2022-09-23T17:49:21.906Z,73.76
2022-09-23T17:51:49.411Z,73.86
2022-09-23T17:54:16.761Z,73.80
2022-09-23T17:56:44.125Z,74.13
2022-09-23T17:59:15.079Z,74.66
2022-09-23T18:01:42.530Z,74.50
2022-09-23T18:04:10.184Z,75.03
2022-09-23T18:06:37.974Z,75.21
2022-09-23T18:09:08.562Z,75.49
2022-09-23T18:11:42.994Z,75.42
2022-09-23T18:14:21.007Z,75.76
2022-09-23T18:16:53.671Z,76.02
2022-09-23T18:19:24.625Z,76.48
2022-09-23T18:21:56.013Z,76.59
2022-09-23T18:24:33.436Z,76.81
2022-09-23T18:27:01.596Z,76.99
2022-09-23T18:29:29.617Z,77.15
2022-09-23T18:31:57.084Z,77.53
2022-09-23T18:34:25.189Z,77.71
2022-09-23T18:36:55.885Z,77.80
2022-09-23T18:39:23.255Z,77.91
2022-09-23T18:41:51.016Z,78.08
2022-09-23T18:44:19.847Z,78.24
2022-09-23T18:46:47.329Z,78.41
2022-09-23T18:49:33.343Z,78.38
2022-09-23T18:52:00.956Z,78.43
2022-09-23T18:54:28.927Z,78.66
2022-09-23T18:56:56.769Z,79.01
2022-09-23T18:59:28.232Z,79.39
2022-09-23T19:01:57.207Z,79.47
2022-09-23T19:04:26.652Z,79.62
2022-09-23T19:06:56.414Z,79.87
2022-09-23T19:09:24.641Z,79.93
2022-09-23T19:11:53.244Z,80.02
2022-09-23T19:14:20.721Z,80.07
2022-09-23T19:16:49.184Z,79.99
2022-09-23T19:19:17.193Z,80.07
2022-09-23T19:21:44.594Z,80.66
2022-09-23T19:24:15.874Z,80.48
2022-09-23T19:26:44.077Z,79.62
2022-09-23T19:29:21.936Z,80.29
2022-09-23T19:31:50.863Z,80.59
2022-09-23T19:34:24.590Z,80.96
2022-09-23T19:36:57.196Z,80.87
2022-09-23T19:39:31.112Z,81.19
2022-09-23T19:41:59.185Z,81.26
2022-09-23T19:44:27.637Z,81.42
2022-09-23T19:46:57.034Z,81.48
2022-09-23T19:49:25.692Z,81.89
2022-09-23T19:51:55.518Z,82.07
2022-09-23T19:54:26.465Z,81.93
2022-09-23T19:56:53.906Z,82.33
2022-09-23T19:59:21.244Z,82.75
2022-09-23T20:01:48.957Z,82.57
2022-09-23T20:04:16.980Z,82.72
2022-09-23T20:06:45.786Z,83.10
2022-09-23T20:09:13.549Z,83.43
2022-09-23T20:11:43.025Z,83.20
2022-09-23T20:14:11.774Z,83.40
2022-09-23T20:16:39.283Z,83.72
2022-09-23T20:19:06.683Z,83.57
2022-09-23T20:21:35.302Z,83.97
2022-09-23T20:24:05.605Z,84.05
2022-09-23T20:26:52.146Z,84.14
2022-09-23T20:29:19.616Z,84.37
2022-09-23T20:31:47.586Z,84.52
2022-09-23T20:34:15.066Z,84.66
2022-09-23T20:36:42.509Z,84.93
2022-09-23T20:39:10.643Z,85.47
2022-09-23T20:41:39.831Z,85.22
2022-09-23T20:44:14.035Z,85.44
2022-09-23T20:46:48.308Z,85.73
2022-09-23T20:49:17.679Z,86.03
2022-09-23T20:51:47.996Z,85.99
2022-09-23T20:54:19.080Z,85.62
2022-09-23T20:56:47.521Z,86.38
2022-09-23T20:59:15.099Z,86.57
2022-09-23T21:01:42.742Z,86.63
2022-09-23T21:04:10.372Z,86.72
2022-09-23T21:06:38.800Z,86.95
2022-09-23T21:09:06.984Z,87.44
2022-09-23T21:11:34.650Z,87.42
2022-09-23T21:14:02.493Z,87.54
2022-09-23T21:16:30.426Z,88.16
2022-09-23T21:18:58.522Z,88.00
2022-09-23T21:21:26.781Z,87.94
2022-09-23T21:23:54.168Z,88.02
2022-09-23T21:26:25.371Z,88.29
2022-09-23T21:28:57.551Z,88.58
2022-09-23T21:31:32.054Z,88.66
2022-09-23T21:34:03.225Z,88.84
2022-09-23T21:36:36.939Z,88.99
2022-09-23T21:39:10.304Z,89.33
2022-09-23T21:41:38.938Z,89.13
2022-09-23T21:44:08.172Z,89.30
2022-09-23T21:46:37.055Z,89.47
2022-09-23T21:49:05.327Z,89.78
2022-09-23T21:51:42.594Z,89.82
2022-09-23T21:54:16.767Z,89.91
2022-09-23T21:56:44.562Z,90.51
2022-09-23T21:59:12.946Z,90.24
2022-09-23T22:01:44.315Z,90.48
2022-09-23T22:04:18.564Z,90.59
2022-09-23T22:06:46.694Z,90.47
2022-09-23T22:09:20.644Z,91.04
2022-09-23T22:12:08.500Z,90.70
2022-09-23T22:14:38.715Z,90.85
2022-09-23T22:17:10.443Z,91.00
2022-09-23T22:19:44.307Z,90.97
2022-09-23T22:22:17.509Z,91.27
2022-09-23T22:24:48.397Z,91.48
2022-09-23T22:27:18.882Z,91.29
2022-09-23T22:30:05.237Z,91.19
2022-09-23T22:32:41.717Z,91.60
2022-09-23T22:35:13.393Z,91.29
2022-09-23T22:37:40.701Z,90.51
2022-09-23T22:40:14.620Z,91.15
2022-09-23T22:42:43.561Z,91.60
2022-09-23T22:45:12.387Z,92.07
2022-09-23T22:47:44.916Z,91.83
2022-09-23T22:50:14.334Z,92.43
2022-09-23T22:52:41.704Z,91.86
2022-09-23T22:55:09.753Z,91.98
2022-09-23T22:57:37.133Z,92.17
2022-09-23T23:00:07.355Z,92.43
2022-09-23T23:02:34.812Z,92.34
2022-09-23T23:05:02.507Z,92.92
2022-09-23T23:07:29.845Z,93.16
2022-09-23T23:09:57.964Z,93.40
2022-09-23T23:12:25.391Z,93.36
2022-09-23T23:14:52.726Z,93.65
2022-09-23T23:17:20.084Z,93.57
2022-09-23T23:19:47.885Z,93.68
2022-09-23T23:22:15.252Z,93.53
2022-09-23T23:24:43.026Z,93.52
2022-09-23T23:27:10.352Z,94.02
2022-09-23T23:29:37.680Z,94.01
2022-09-23T23:32:05.942Z,93.99
2022-09-23T23:34:33.294Z,94.34
2022-09-23T23:37:00.679Z,93.97
2022-09-23T23:39:28.088Z,94.50
2022-09-23T23:41:57.814Z,94.09
2022-09-23T23:44:26.854Z,94.18
2022-09-23T23:46:55.106Z,94.49
2022-09-23T23:49:22.836Z,94.68
2022-09-23T23:51:50.279Z,94.64
2022-09-23T23:54:17.627Z,94.45
2022-09-23T23:56:45.051Z,94.76
2022-09-23T23:59:12.766Z,94.69
